sensor_id;sensor_type;location;lat;lon;timestamp;P1;durP1;ratioP1;P2;durP2;ratioP2
74465;SDS011;62916;50.044;15.938;2022-11-23T00:02:17;6.40;;;4.90;;
74465;SDS011;62916;50.044;15.938;2022-11-23T00:04:48;5.90;;;4.50;;
74465;SDS011;62916;50.044;15.938;2022-11-23T00:07:19;5.50;;;4.80;;
74465;SDS011;62916;50.044;15.938;2022-11-23T00:09:50;5.70;;;4.90;;
74465;SDS011;62916;50.044;15.938;2022-11-23T00:12:20;5.60;;;5.10;;
74465;SDS011;62916;50.044;15.938;2022-11-23T00:14:51;6.90;;;4.80;;
74465;SDS011;62916;50.044;15.938;2022-11-23T00:17:22;6.00;;;5.10;;
74465;SDS011;62916;50.044;15.938;2022-11-23T00:19:53;6.50;;;4.90;;
74465;SDS011;62916;50.044;15.938;2022-11-23T00:22:23;6.70;;;4.80;;
74465;SDS011;62916;50.044;15.938;2022-11-23T00:24:54;6.30;;;4.70;;
74465;SDS011;62916;50.044;15.938;2022-11-23T00:27:25;6.40;;;4.80;;
74465;SDS011;62916;50.044;15.938;2022-11-23T00:29:56;5.10;;;4.60;;
74465;SDS011;62916;50.044;15.938;2022-11-23T00:32:27;6.10;;;5.40;;
74465;SDS011;62916;50.044;15.938;2022-11-23T00:34:58;5.20;;;4.70;;
74465;SDS011;62916;50.044;15.938;2022-11-23T00:37:29;5.30;;;4.80;;
74465;SDS011;62916;50.044;15.938;2022-11-23T00:40:00;5.20;;;4.70;;
74465;SDS011;62916;50.044;15.938;2022-11-23T00:42:31;5.60;;;5.00;;
74465;SDS011;62916;50.044;15.938;2022-11-23T00:45:06;5.50;;;4.70;;
74465;SDS011;62916;50.044;15.938;2022-11-23T00:47:37;5.60;;;4.80;;
74465;SDS011;62916;50.044;15.938;2022-11-23T00:50:08;6.60;;;5.10;;
74465;SDS011;62916;50.044;15.938;2022-11-23T00:52:39;5.10;;;4.60;;
74465;SDS011;62916;50.044;15.938;2022-11-23T00:55:10;6.20;;;5.60;;
74465;SDS011;62916;50.044;15.938;2022-11-23T00:57:41;6.70;;;5.40;;
74465;SDS011;62916;50.044;15.938;2022-11-23T01:00:12;5.50;;;4.70;;
74465;SDS011;62916;50.044;15.938;2022-11-23T01:02:44;5.40;;;4.80;;
74465;SDS011;62916;50.044;15.938;2022-11-23T01:05:15;5.30;;;4.80;;
74465;SDS011;62916;50.044;15.938;2022-11-23T01:07:45;5.70;;;4.80;;
74465;SDS011;62916;50.044;15.938;2022-11-23T01:10:16;6.20;;;5.50;;
74465;SDS011;62916;50.044;15.938;2022-11-23T01:12:47;5.10;;;4.40;;
74465;SDS011;62916;50.044;15.938;2022-11-23T01:15:17;5.80;;;4.80;;
74465;SDS011;62916;50.044;15.938;2022-11-23T01:17:48;6.00;;;4.90;;
74465;SDS011;62916;50.044;15.938;2022-11-23T01:20:19;6.10;;;4.90;;
74465;SDS011;62916;50.044;15.938;2022-11-23T01:22:51;5.70;;;5.00;;
74465;SDS011;62916;50.044;15.938;2022-11-23T01:25:22;4.90;;;4.40;;
74465;SDS011;62916;50.044;15.938;2022-11-23T01:27:52;5.20;;;4.70;;
74465;SDS011;62916;50.044;15.938;2022-11-23T01:30:23;5.60;;;4.50;;
74465;SDS011;62916;50.044;15.938;2022-11-23T01:32:55;4.90;;;4.30;;
74465;SDS011;62916;50.044;15.938;2022-11-23T01:35:26;5.80;;;5.20;;
74465;SDS011;62916;50.044;15.938;2022-11-23T01:37:57;4.90;;;4.40;;
74465;SDS011;62916;50.044;15.938;2022-11-23T01:40:28;5.40;;;4.70;;
74465;SDS011;62916;50.044;15.938;2022-11-23T01:42:59;5.60;;;4.60;;
74465;SDS011;62916;50.044;15.938;2022-11-23T01:45:33;5.10;;;4.60;;
74465;SDS011;62916;50.044;15.938;2022-11-23T01:48:07;4.60;;;4.10;;
74465;SDS011;62916;50.044;15.938;2022-11-23T01:50:42;5.20;;;4.40;;
74465;SDS011;62916;50.044;15.938;2022-11-23T01:55:47;4.80;;;4.30;;
74465;SDS011;62916;50.044;15.938;2022-11-23T01:58:19;5.20;;;4.70;;
74465;SDS011;62916;50.044;15.938;2022-11-23T02:00:53;5.60;;;5.10;;
74465;SDS011;62916;50.044;15.938;2022-11-23T02:03:25;6.50;;;4.60;;
74465;SDS011;62916;50.044;15.938;2022-11-23T02:06:02;6.60;;;4.80;;
74465;SDS011;62916;50.044;15.938;2022-11-23T02:08:37;4.80;;;4.30;;
74465;SDS011;62916;50.044;15.938;2022-11-23T02:11:08;5.50;;;4.50;;
74465;SDS011;62916;50.044;15.938;2022-11-23T02:13:42;5.70;;;5.20;;
74465;SDS011;62916;50.044;15.938;2022-11-23T02:16:15;5.30;;;4.80;;
74465;SDS011;62916;50.044;15.938;2022-11-23T02:18:47;5.90;;;4.80;;
74465;SDS011;62916;50.044;15.938;2022-11-23T02:21:19;5.30;;;4.60;;
74465;SDS011;62916;50.044;15.938;2022-11-23T02:23:53;5.40;;;4.80;;
74465;SDS011;62916;50.044;15.938;2022-11-23T02:26:28;5.00;;;4.40;;
74465;SDS011;62916;50.044;15.938;2022-11-23T02:29:02;5.00;;;4.50;;
74465;SDS011;62916;50.044;15.938;2022-11-23T02:31:35;5.90;;;4.80;;
74465;SDS011;62916;50.044;15.938;2022-11-23T02:34:06;5.50;;;4.70;;
74465;SDS011;62916;50.044;15.938;2022-11-23T02:36:38;5.20;;;4.30;;
74465;SDS011;62916;50.044;15.938;2022-11-23T02:39:11;5.70;;;4.70;;
74465;SDS011;62916;50.044;15.938;2022-11-23T02:41:45;4.90;;;4.40;;
74465;SDS011;62916;50.044;15.938;2022-11-23T02:44:30;5.10;;;4.60;;
74465;SDS011;62916;50.044;15.938;2022-11-23T02:47:07;5.70;;;4.60;;
74465;SDS011;62916;50.044;15.938;2022-11-23T02:49:39;4.80;;;4.20;;
74465;SDS011;62916;50.044;15.938;2022-11-23T02:52:10;5.10;;;4.10;;
74465;SDS011;62916;50.044;15.938;2022-11-23T02:54:42;4.40;;;3.90;;
74465;SDS011;62916;50.044;15.938;2022-11-23T02:57:12;5.00;;;4.50;;
74465;SDS011;62916;50.044;15.938;2022-11-23T02:59:43;5.80;;;4.20;;
74465;SDS011;62916;50.044;15.938;2022-11-23T03:02:14;5.20;;;4.60;;
74465;SDS011;62916;50.044;15.938;2022-11-23T03:04:45;6.00;;;4.30;;
74465;SDS011;62916;50.044;15.938;2022-11-23T03:07:15;5.30;;;4.60;;
74465;SDS011;62916;50.044;15.938;2022-11-23T03:09:46;4.70;;;4.20;;
74465;SDS011;62916;50.044;15.938;2022-11-23T03:12:17;5.10;;;4.60;;
74465;SDS011;62916;50.044;15.938;2022-11-23T03:14:47;4.50;;;3.90;;
74465;SDS011;62916;50.044;15.938;2022-11-23T03:17:18;4.90;;;4.40;;
74465;SDS011;62916;50.044;15.938;2022-11-23T03:19:49;4.80;;;4.20;;
74465;SDS011;62916;50.044;15.938;2022-11-23T03:22:20;5.60;;;4.20;;
74465;SDS011;62916;50.044;15.938;2022-11-23T03:24:50;4.80;;;4.10;;
74465;SDS011;62916;50.044;15.938;2022-11-23T03:27:21;4.50;;;3.90;;
74465;SDS011;62916;50.044;15.938;2022-11-23T03:29:52;4.50;;;4.10;;
74465;SDS011;62916;50.044;15.938;2022-11-23T03:32:22;4.90;;;4.40;;
74465;SDS011;62916;50.044;15.938;2022-11-23T03:34:53;5.20;;;4.00;;
74465;SDS011;62916;50.044;15.938;2022-11-23T03:37:24;4.40;;;4.00;;
74465;SDS011;62916;50.044;15.938;2022-11-23T03:39:54;4.30;;;3.90;;
74465;SDS011;62916;50.044;15.938;2022-11-23T03:42:25;5.80;;;4.30;;
74465;SDS011;62916;50.044;15.938;2022-11-23T03:44:56;5.60;;;4.40;;
74465;SDS011;62916;50.044;15.938;2022-11-23T03:47:27;5.10;;;4.60;;
74465;SDS011;62916;50.044;15.938;2022-11-23T03:49:58;4.50;;;3.90;;
74465;SDS011;62916;50.044;15.938;2022-11-23T03:52:28;4.60;;;4.20;;
74465;SDS011;62916;50.044;15.938;2022-11-23T03:54:59;5.20;;;4.30;;
74465;SDS011;62916;50.044;15.938;2022-11-23T03:57:30;5.90;;;4.40;;
74465;SDS011;62916;50.044;15.938;2022-11-23T04:00:00;5.00;;;4.00;;
74465;SDS011;62916;50.044;15.938;2022-11-23T04:02:32;5.90;;;4.50;;
74465;SDS011;62916;50.044;15.938;2022-11-23T04:05:03;4.70;;;4.20;;
74465;SDS011;62916;50.044;15.938;2022-11-23T04:07:35;4.90;;;4.40;;
74465;SDS011;62916;50.044;15.938;2022-11-23T04:10:07;5.00;;;4.10;;
74465;SDS011;62916;50.044;15.938;2022-11-23T04:12:38;5.10;;;4.10;;
74465;SDS011;62916;50.044;15.938;2022-11-23T04:15:09;4.20;;;3.80;;
74465;SDS011;62916;50.044;15.938;2022-11-23T04:17:40;5.20;;;4.60;;
74465;SDS011;62916;50.044;15.938;2022-11-23T04:20:12;4.80;;;4.40;;
74465;SDS011;62916;50.044;15.938;2022-11-23T04:22:43;4.90;;;4.30;;
74465;SDS011;62916;50.044;15.938;2022-11-23T04:25:14;5.10;;;4.30;;
74465;SDS011;62916;50.044;15.938;2022-11-23T04:27:45;4.80;;;4.20;;
74465;SDS011;62916;50.044;15.938;2022-11-23T04:30:16;4.50;;;4.10;;
74465;SDS011;62916;50.044;15.938;2022-11-23T04:32:47;5.00;;;4.50;;
74465;SDS011;62916;50.044;15.938;2022-11-23T04:35:18;5.90;;;4.40;;
74465;SDS011;62916;50.044;15.938;2022-11-23T04:37:49;4.80;;;4.20;;
74465;SDS011;62916;50.044;15.938;2022-11-23T04:40:20;4.30;;;3.60;;
74465;SDS011;62916;50.044;15.938;2022-11-23T04:42:51;5.00;;;4.00;;
74465;SDS011;62916;50.044;15.938;2022-11-23T04:45:28;6.60;;;4.40;;
74465;SDS011;62916;50.044;15.938;2022-11-23T04:47:58;5.10;;;4.10;;
74465;SDS011;62916;50.044;15.938;2022-11-23T04:50:29;6.10;;;4.20;;
74465;SDS011;62916;50.044;15.938;2022-11-23T04:53:00;5.00;;;4.50;;
74465;SDS011;62916;50.044;15.938;2022-11-23T04:55:31;6.70;;;4.40;;
74465;SDS011;62916;50.044;15.938;2022-11-23T04:58:02;9.80;;;4.60;;
74465;SDS011;62916;50.044;15.938;2022-11-23T05:00:33;9.00;;;4.40;;
74465;SDS011;62916;50.044;15.938;2022-11-23T05:03:04;5.10;;;4.20;;
74465;SDS011;62916;50.044;15.938;2022-11-23T05:05:37;5.50;;;4.60;;
74465;SDS011;62916;50.044;15.938;2022-11-23T05:08:08;6.10;;;3.90;;
74465;SDS011;62916;50.044;15.938;2022-11-23T05:10:39;4.70;;;3.90;;
74465;SDS011;62916;50.044;15.938;2022-11-23T05:13:11;4.40;;;3.90;;
74465;SDS011;62916;50.044;15.938;2022-11-23T05:15:42;7.40;;;4.00;;
74465;SDS011;62916;50.044;15.938;2022-11-23T05:18:13;9.10;;;4.50;;
74465;SDS011;62916;50.044;15.938;2022-11-23T05:20:43;27.00;;;6.70;;
74465;SDS011;62916;50.044;15.938;2022-11-23T05:23:15;48.10;;;10.20;;
74465;SDS011;62916;50.044;15.938;2022-11-23T05:25:46;47.60;;;9.80;;
74465;SDS011;62916;50.044;15.938;2022-11-23T05:28:17;52.40;;;11.40;;
74465;SDS011;62916;50.044;15.938;2022-11-23T05:31:07;40.50;;;9.60;;
74465;SDS011;62916;50.044;15.938;2022-11-23T05:33:38;37.90;;;9.80;;
74465;SDS011;62916;50.044;15.938;2022-11-23T05:36:09;35.00;;;8.70;;
74465;SDS011;62916;50.044;15.938;2022-11-23T05:38:40;38.90;;;8.80;;
74465;SDS011;62916;50.044;15.938;2022-11-23T05:41:11;34.30;;;9.30;;
74465;SDS011;62916;50.044;15.938;2022-11-23T05:43:42;30.70;;;9.60;;
74465;SDS011;62916;50.044;15.938;2022-11-23T05:46:13;33.60;;;8.20;;
74465;SDS011;62916;50.044;15.938;2022-11-23T05:48:44;30.60;;;8.50;;
74465;SDS011;62916;50.044;15.938;2022-11-23T05:51:14;32.50;;;8.50;;
74465;SDS011;62916;50.044;15.938;2022-11-23T05:53:45;36.00;;;8.60;;
74465;SDS011;62916;50.044;15.938;2022-11-23T05:56:16;31.40;;;8.40;;
74465;SDS011;62916;50.044;15.938;2022-11-23T05:58:47;32.90;;;8.40;;
74465;SDS011;62916;50.044;15.938;2022-11-23T06:01:17;29.10;;;7.20;;
74465;SDS011;62916;50.044;15.938;2022-11-23T06:03:49;27.10;;;8.00;;
74465;SDS011;62916;50.044;15.938;2022-11-23T06:06:20;24.20;;;8.30;;
74465;SDS011;62916;50.044;15.938;2022-11-23T06:08:51;27.20;;;8.20;;
74465;SDS011;62916;50.044;15.938;2022-11-23T06:11:22;26.50;;;7.80;;
74465;SDS011;62916;50.044;15.938;2022-11-23T06:13:52;18.30;;;7.20;;
74465;SDS011;62916;50.044;15.938;2022-11-23T06:16:23;23.60;;;7.70;;
74465;SDS011;62916;50.044;15.938;2022-11-23T06:18:54;22.30;;;6.70;;
74465;SDS011;62916;50.044;15.938;2022-11-23T06:21:24;20.60;;;7.90;;
74465;SDS011;62916;50.044;15.938;2022-11-23T06:23:55;19.50;;;7.10;;
74465;SDS011;62916;50.044;15.938;2022-11-23T06:26:26;19.60;;;7.20;;
74465;SDS011;62916;50.044;15.938;2022-11-23T06:28:57;18.20;;;7.10;;
74465;SDS011;62916;50.044;15.938;2022-11-23T06:31:28;19.20;;;7.40;;
74465;SDS011;62916;50.044;15.938;2022-11-23T06:33:59;17.60;;;6.60;;
74465;SDS011;62916;50.044;15.938;2022-11-23T06:36:29;17.90;;;6.90;;
74465;SDS011;62916;50.044;15.938;2022-11-23T06:39:00;20.00;;;7.20;;
74465;SDS011;62916;50.044;15.938;2022-11-23T06:41:31;22.60;;;7.00;;
74465;SDS011;62916;50.044;15.938;2022-11-23T06:44:02;16.80;;;6.70;;
74465;SDS011;62916;50.044;15.938;2022-11-23T06:46:33;14.90;;;6.80;;
74465;SDS011;62916;50.044;15.938;2022-11-23T06:49:04;17.40;;;7.00;;
74465;SDS011;62916;50.044;15.938;2022-11-23T06:51:35;15.70;;;5.90;;
74465;SDS011;62916;50.044;15.938;2022-11-23T06:54:06;20.50;;;5.70;;
74465;SDS011;62916;50.044;15.938;2022-11-23T06:56:36;16.40;;;6.40;;
74465;SDS011;62916;50.044;15.938;2022-11-23T06:59:07;17.10;;;7.20;;
74465;SDS011;62916;50.044;15.938;2022-11-23T07:01:38;12.20;;;5.50;;
74465;SDS011;62916;50.044;15.938;2022-11-23T07:04:09;14.80;;;5.90;;
74465;SDS011;62916;50.044;15.938;2022-11-23T07:06:40;14.70;;;6.40;;
74465;SDS011;62916;50.044;15.938;2022-11-23T07:09:11;13.50;;;5.80;;
74465;SDS011;62916;50.044;15.938;2022-11-23T07:11:42;10.50;;;5.10;;
74465;SDS011;62916;50.044;15.938;2022-11-23T07:14:12;15.40;;;5.90;;
74465;SDS011;62916;50.044;15.938;2022-11-23T07:16:43;14.30;;;5.80;;
74465;SDS011;62916;50.044;15.938;2022-11-23T07:19:14;12.20;;;5.80;;
74465;SDS011;62916;50.044;15.938;2022-11-23T07:21:45;12.80;;;5.50;;
74465;SDS011;62916;50.044;15.938;2022-11-23T07:24:16;12.80;;;6.40;;
74465;SDS011;62916;50.044;15.938;2022-11-23T07:26:46;12.40;;;5.70;;
74465;SDS011;62916;50.044;15.938;2022-11-23T07:29:17;12.60;;;5.70;;
74465;SDS011;62916;50.044;15.938;2022-11-23T07:31:48;11.90;;;5.40;;
74465;SDS011;62916;50.044;15.938;2022-11-23T07:34:19;11.40;;;5.80;;
74465;SDS011;62916;50.044;15.938;2022-11-23T07:36:50;9.80;;;5.60;;
74465;SDS011;62916;50.044;15.938;2022-11-23T07:39:27;13.30;;;5.10;;
74465;SDS011;62916;50.044;15.938;2022-11-23T07:42:18;10.10;;;4.90;;
74465;SDS011;62916;50.044;15.938;2022-11-23T07:45:01;10.70;;;5.10;;
74465;SDS011;62916;50.044;15.938;2022-11-23T07:47:33;11.20;;;5.50;;
74465;SDS011;62916;50.044;15.938;2022-11-23T07:50:05;9.20;;;5.30;;
74465;SDS011;62916;50.044;15.938;2022-11-23T07:55:08;10.50;;;4.80;;
74465;SDS011;62916;50.044;15.938;2022-11-23T07:57:38;9.50;;;4.90;;
74465;SDS011;62916;50.044;15.938;2022-11-23T08:00:10;10.30;;;5.70;;
74465;SDS011;62916;50.044;15.938;2022-11-23T08:02:42;10.40;;;5.00;;
74465;SDS011;62916;50.044;15.938;2022-11-23T08:05:33;10.40;;;5.40;;
74465;SDS011;62916;50.044;15.938;2022-11-23T08:08:04;9.80;;;5.00;;
74465;SDS011;62916;50.044;15.938;2022-11-23T08:10:34;8.90;;;5.30;;
74465;SDS011;62916;50.044;15.938;2022-11-23T08:13:13;9.20;;;5.00;;
74465;SDS011;62916;50.044;15.938;2022-11-23T08:15:44;7.30;;;4.30;;
74465;SDS011;62916;50.044;15.938;2022-11-23T08:18:22;6.80;;;4.40;;
74465;SDS011;62916;50.044;15.938;2022-11-23T08:20:53;10.00;;;5.10;;
74465;SDS011;62916;50.044;15.938;2022-11-23T08:23:27;9.20;;;5.30;;
74465;SDS011;62916;50.044;15.938;2022-11-23T08:25:58;7.30;;;4.80;;
74465;SDS011;62916;50.044;15.938;2022-11-23T08:28:34;9.00;;;4.70;;
74465;SDS011;62916;50.044;15.938;2022-11-23T08:31:07;11.70;;;5.60;;
74465;SDS011;62916;50.044;15.938;2022-11-23T08:33:39;8.40;;;4.70;;
74465;SDS011;62916;50.044;15.938;2022-11-23T08:36:10;8.00;;;5.00;;
74465;SDS011;62916;50.044;15.938;2022-11-23T08:38:41;9.50;;;5.40;;
74465;SDS011;62916;50.044;15.938;2022-11-23T08:41:12;9.10;;;5.40;;
74465;SDS011;62916;50.044;15.938;2022-11-23T08:43:44;7.60;;;5.00;;
74465;SDS011;62916;50.044;15.938;2022-11-23T08:46:16;8.10;;;4.80;;
74465;SDS011;62916;50.044;15.938;2022-11-23T08:48:47;9.40;;;4.40;;
74465;SDS011;62916;50.044;15.938;2022-11-23T08:51:18;8.20;;;5.10;;
74465;SDS011;62916;50.044;15.938;2022-11-23T08:53:49;10.30;;;5.70;;
74465;SDS011;62916;50.044;15.938;2022-11-23T08:56:20;9.60;;;5.00;;
74465;SDS011;62916;50.044;15.938;2022-11-23T08:58:52;8.90;;;4.40;;
74465;SDS011;62916;50.044;15.938;2022-11-23T09:01:22;9.40;;;5.00;;
74465;SDS011;62916;50.044;15.938;2022-11-23T09:03:53;7.30;;;4.40;;
74465;SDS011;62916;50.044;15.938;2022-11-23T09:06:24;7.10;;;4.50;;
74465;SDS011;62916;50.044;15.938;2022-11-23T09:08:56;6.70;;;4.60;;
74465;SDS011;62916;50.044;15.938;2022-11-23T09:11:26;7.00;;;4.50;;
74465;SDS011;62916;50.044;15.938;2022-11-23T09:13:57;8.10;;;4.90;;
74465;SDS011;62916;50.044;15.938;2022-11-23T09:16:28;6.90;;;4.60;;
74465;SDS011;62916;50.044;15.938;2022-11-23T09:19:00;8.10;;;5.70;;
74465;SDS011;62916;50.044;15.938;2022-11-23T09:21:33;7.20;;;5.30;;
74465;SDS011;62916;50.044;15.938;2022-11-23T09:24:06;8.30;;;5.30;;
74465;SDS011;62916;50.044;15.938;2022-11-23T09:26:37;6.40;;;4.20;;
74465;SDS011;62916;50.044;15.938;2022-11-23T09:29:08;6.30;;;4.20;;
74465;SDS011;62916;50.044;15.938;2022-11-23T09:31:39;6.20;;;4.40;;
74465;SDS011;62916;50.044;15.938;2022-11-23T09:34:10;6.00;;;4.30;;
74465;SDS011;62916;50.044;15.938;2022-11-23T09:36:41;6.80;;;4.60;;
74465;SDS011;62916;50.044;15.938;2022-11-23T09:39:12;6.30;;;4.80;;
74465;SDS011;62916;50.044;15.938;2022-11-23T09:41:56;6.10;;;4.80;;
74465;SDS011;62916;50.044;15.938;2022-11-23T09:44:46;6.30;;;4.30;;
74465;SDS011;62916;50.044;15.938;2022-11-23T09:47:32;7.50;;;4.90;;
74465;SDS011;62916;50.044;15.938;2022-11-23T09:50:16;7.10;;;4.60;;
74465;SDS011;62916;50.044;15.938;2022-11-23T09:52:54;6.50;;;4.50;;
74465;SDS011;62916;50.044;15.938;2022-11-23T09:55:33;5.50;;;4.30;;
74465;SDS011;62916;50.044;15.938;2022-11-23T09:58:11;6.20;;;4.40;;
74465;SDS011;62916;50.044;15.938;2022-11-23T10:00:45;6.60;;;4.50;;
74465;SDS011;62916;50.044;15.938;2022-11-23T10:03:19;6.30;;;4.20;;
74465;SDS011;62916;50.044;15.938;2022-11-23T10:05:56;6.90;;;4.50;;
74465;SDS011;62916;50.044;15.938;2022-11-23T10:08:37;5.20;;;3.70;;
74465;SDS011;62916;50.044;15.938;2022-11-23T10:11:22;7.10;;;4.30;;
74465;SDS011;62916;50.044;15.938;2022-11-23T10:14:06;6.80;;;4.30;;
74465;SDS011;62916;50.044;15.938;2022-11-23T10:16:47;5.50;;;4.30;;
74465;SDS011;62916;50.044;15.938;2022-11-23T10:19:29;6.30;;;4.30;;
74465;SDS011;62916;50.044;15.938;2022-11-23T10:22:13;6.40;;;4.20;;
74465;SDS011;62916;50.044;15.938;2022-11-23T10:24:50;6.10;;;4.30;;
74465;SDS011;62916;50.044;15.938;2022-11-23T10:27:22;6.60;;;4.50;;
74465;SDS011;62916;50.044;15.938;2022-11-23T10:29:53;6.60;;;4.50;;
74465;SDS011;62916;50.044;15.938;2022-11-23T10:32:28;5.60;;;4.10;;
74465;SDS011;62916;50.044;15.938;2022-11-23T10:35:03;5.50;;;3.80;;
74465;SDS011;62916;50.044;15.938;2022-11-23T10:37:40;6.10;;;4.40;;
74465;SDS011;62916;50.044;15.938;2022-11-23T10:40:13;6.70;;;4.40;;
74465;SDS011;62916;50.044;15.938;2022-11-23T10:42:49;6.20;;;4.10;;
74465;SDS011;62916;50.044;15.938;2022-11-23T10:45:24;4.70;;;3.80;;
74465;SDS011;62916;50.044;15.938;2022-11-23T10:47:58;5.50;;;4.40;;
74465;SDS011;62916;50.044;15.938;2022-11-23T10:50:29;6.30;;;4.70;;
74465;SDS011;62916;50.044;15.938;2022-11-23T10:53:17;5.00;;;4.00;;
74465;SDS011;62916;50.044;15.938;2022-11-23T10:55:51;5.40;;;4.30;;
74465;SDS011;62916;50.044;15.938;2022-11-23T10:58:25;6.20;;;4.30;;
74465;SDS011;62916;50.044;15.938;2022-11-23T11:01:01;5.00;;;4.40;;
74465;SDS011;62916;50.044;15.938;2022-11-23T11:03:34;6.40;;;4.70;;
74465;SDS011;62916;50.044;15.938;2022-11-23T11:06:05;4.90;;;4.20;;
74465;SDS011;62916;50.044;15.938;2022-11-23T11:08:47;6.00;;;4.30;;
74465;SDS011;62916;50.044;15.938;2022-11-23T11:11:24;4.30;;;3.90;;
74465;SDS011;62916;50.044;15.938;2022-11-23T11:14:04;5.00;;;4.10;;
74465;SDS011;62916;50.044;15.938;2022-11-23T11:16:47;6.00;;;4.40;;
74465;SDS011;62916;50.044;15.938;2022-11-23T11:19:24;5.80;;;4.40;;
74465;SDS011;62916;50.044;15.938;2022-11-23T11:21:57;5.30;;;4.30;;
74465;SDS011;62916;50.044;15.938;2022-11-23T11:24:30;4.80;;;4.30;;
74465;SDS011;62916;50.044;15.938;2022-11-23T11:27:05;5.80;;;4.20;;
74465;SDS011;62916;50.044;15.938;2022-11-23T11:29:47;6.00;;;4.20;;
74465;SDS011;62916;50.044;15.938;2022-11-23T11:32:20;5.90;;;4.10;;
74465;SDS011;62916;50.044;15.938;2022-11-23T11:34:57;4.60;;;3.80;;
74465;SDS011;62916;50.044;15.938;2022-11-23T11:37:36;4.50;;;3.80;;
74465;SDS011;62916;50.044;15.938;2022-11-23T11:40:12;4.40;;;3.80;;
74465;SDS011;62916;50.044;15.938;2022-11-23T11:42:51;5.30;;;4.20;;
74465;SDS011;62916;50.044;15.938;2022-11-23T11:45:27;6.00;;;4.50;;
74465;SDS011;62916;50.044;15.938;2022-11-23T11:48:02;4.80;;;4.20;;
74465;SDS011;62916;50.044;15.938;2022-11-23T11:50:37;6.00;;;4.10;;
74465;SDS011;62916;50.044;15.938;2022-11-23T11:53:16;5.00;;;4.10;;
74465;SDS011;62916;50.044;15.938;2022-11-23T11:55:52;5.80;;;4.40;;
74465;SDS011;62916;50.044;15.938;2022-11-23T11:58:26;5.00;;;4.00;;
74465;SDS011;62916;50.044;15.938;2022-11-23T12:00:59;5.60;;;4.10;;
74465;SDS011;62916;50.044;15.938;2022-11-23T12:03:39;6.00;;;4.60;;
74465;SDS011;62916;50.044;15.938;2022-11-23T12:06:15;5.90;;;4.50;;
74465;SDS011;62916;50.044;15.938;2022-11-23T12:08:54;6.50;;;4.40;;
74465;SDS011;62916;50.044;15.938;2022-11-23T12:11:31;5.80;;;4.70;;
74465;SDS011;62916;50.044;15.938;2022-11-23T12:14:04;6.50;;;4.50;;
74465;SDS011;62916;50.044;15.938;2022-11-23T12:16:40;6.70;;;5.20;;
74465;SDS011;62916;50.044;15.938;2022-11-23T12:19:41;5.70;;;4.60;;
74465;SDS011;62916;50.044;15.938;2022-11-23T12:22:25;5.50;;;4.30;;
74465;SDS011;62916;50.044;15.938;2022-11-23T12:25:08;5.50;;;4.60;;
74465;SDS011;62916;50.044;15.938;2022-11-23T12:27:48;6.20;;;4.60;;
74465;SDS011;62916;50.044;15.938;2022-11-23T12:30:29;5.80;;;4.50;;
74465;SDS011;62916;50.044;15.938;2022-11-23T12:33:17;6.30;;;4.60;;
74465;SDS011;62916;50.044;15.938;2022-11-23T12:36:07;6.40;;;4.70;;
74465;SDS011;62916;50.044;15.938;2022-11-23T12:38:52;6.40;;;4.60;;
74465;SDS011;62916;50.044;15.938;2022-11-23T12:41:31;7.10;;;5.70;;
74465;SDS011;62916;50.044;15.938;2022-11-23T12:44:17;5.60;;;4.60;;
74465;SDS011;62916;50.044;15.938;2022-11-23T12:47:07;6.30;;;5.00;;
74465;SDS011;62916;50.044;15.938;2022-11-23T12:49:47;7.40;;;4.90;;
74465;SDS011;62916;50.044;15.938;2022-11-23T12:52:31;6.50;;;5.20;;
74465;SDS011;62916;50.044;15.938;2022-11-23T12:55:17;6.30;;;5.00;;
74465;SDS011;62916;50.044;15.938;2022-11-23T12:57:53;6.60;;;5.00;;
74465;SDS011;62916;50.044;15.938;2022-11-23T13:00:30;5.90;;;4.90;;
74465;SDS011;62916;50.044;15.938;2022-11-23T13:03:11;7.10;;;4.80;;
74465;SDS011;62916;50.044;15.938;2022-11-23T13:06:05;5.90;;;5.00;;
74465;SDS011;62916;50.044;15.938;2022-11-23T13:11:57;5.90;;;4.60;;
74465;SDS011;62916;50.044;15.938;2022-11-23T13:14:41;6.40;;;4.80;;
74465;SDS011;62916;50.044;15.938;2022-11-23T13:17:25;6.40;;;5.20;;
74465;SDS011;62916;50.044;15.938;2022-11-23T13:20:09;6.70;;;4.70;;
74465;SDS011;62916;50.044;15.938;2022-11-23T13:22:50;7.20;;;5.40;;
74465;SDS011;62916;50.044;15.938;2022-11-23T13:25:24;7.30;;;4.90;;
74465;SDS011;62916;50.044;15.938;2022-11-23T13:27:57;7.40;;;5.10;;
74465;SDS011;62916;50.044;15.938;2022-11-23T13:30:30;5.80;;;5.00;;
74465;SDS011;62916;50.044;15.938;2022-11-23T13:33:26;5.70;;;4.50;;
74465;SDS011;62916;50.044;15.938;2022-11-23T13:36:06;7.10;;;5.20;;
74465;SDS011;62916;50.044;15.938;2022-11-23T13:38:46;6.70;;;5.00;;
74465;SDS011;62916;50.044;15.938;2022-11-23T13:44:23;6.30;;;5.20;;
74465;SDS011;62916;50.044;15.938;2022-11-23T13:46:56;6.50;;;4.90;;
74465;SDS011;62916;50.044;15.938;2022-11-23T13:49:30;6.70;;;5.20;;
74465;SDS011;62916;50.044;15.938;2022-11-23T13:52:21;6.90;;;5.30;;
74465;SDS011;62916;50.044;15.938;2022-11-23T13:54:57;6.10;;;4.90;;
74465;SDS011;62916;50.044;15.938;2022-11-23T13:57:37;5.60;;;4.80;;
74465;SDS011;62916;50.044;15.938;2022-11-23T14:06:20;5.60;;;4.50;;
74465;SDS011;62916;50.044;15.938;2022-11-23T14:08:57;6.00;;;4.70;;
74465;SDS011;62916;50.044;15.938;2022-11-23T14:11:35;5.70;;;5.10;;
74465;SDS011;62916;50.044;15.938;2022-11-23T14:14:17;6.60;;;4.30;;
74465;SDS011;62916;50.044;15.938;2022-11-23T14:19:59;7.00;;;5.60;;
74465;SDS011;62916;50.044;15.938;2022-11-23T14:22:40;6.00;;;4.90;;
74465;SDS011;62916;50.044;15.938;2022-11-23T14:25:32;6.80;;;4.80;;
74465;SDS011;62916;50.044;15.938;2022-11-23T14:28:21;6.50;;;5.50;;
74465;SDS011;62916;50.044;15.938;2022-11-23T14:31:10;7.30;;;5.70;;
74465;SDS011;62916;50.044;15.938;2022-11-23T14:33:49;6.10;;;5.00;;
74465;SDS011;62916;50.044;15.938;2022-11-23T14:36:30;6.20;;;4.70;;
74465;SDS011;62916;50.044;15.938;2022-11-23T14:39:32;5.50;;;4.90;;
74465;SDS011;62916;50.044;15.938;2022-11-23T14:42:31;6.70;;;4.80;;
74465;SDS011;62916;50.044;15.938;2022-11-23T14:45:11;7.00;;;6.30;;
74465;SDS011;62916;50.044;15.938;2022-11-23T14:47:43;6.60;;;4.80;;
74465;SDS011;62916;50.044;15.938;2022-11-23T14:50:24;5.80;;;4.70;;
74465;SDS011;62916;50.044;15.938;2022-11-23T14:52:56;5.70;;;4.80;;
74465;SDS011;62916;50.044;15.938;2022-11-23T14:55:29;7.00;;;5.60;;
74465;SDS011;62916;50.044;15.938;2022-11-23T14:58:01;19.50;;;6.70;;
74465;SDS011;62916;50.044;15.938;2022-11-23T15:00:34;32.70;;;7.80;;
74465;SDS011;62916;50.044;15.938;2022-11-23T15:03:07;29.20;;;8.60;;
74465;SDS011;62916;50.044;15.938;2022-11-23T15:06:05;35.30;;;9.00;;
74465;SDS011;62916;50.044;15.938;2022-11-23T15:08:42;26.00;;;7.10;;
74465;SDS011;62916;50.044;15.938;2022-11-23T15:11:22;32.30;;;6.90;;
74465;SDS011;62916;50.044;15.938;2022-11-23T15:16:36;21.60;;;6.90;;
74465;SDS011;62916;50.044;15.938;2022-11-23T15:19:23;22.40;;;6.60;;
74465;SDS011;62916;50.044;15.938;2022-11-23T15:21:56;25.70;;;6.80;;
74465;SDS011;62916;50.044;15.938;2022-11-23T15:24:27;22.70;;;6.60;;
74465;SDS011;62916;50.044;15.938;2022-11-23T15:27:03;24.40;;;7.50;;
74465;SDS011;62916;50.044;15.938;2022-11-23T15:29:48;18.00;;;6.40;;
74465;SDS011;62916;50.044;15.938;2022-11-23T15:32:21;18.30;;;6.20;;
74465;SDS011;62916;50.044;15.938;2022-11-23T15:35:00;19.70;;;7.20;;
74465;SDS011;62916;50.044;15.938;2022-11-23T15:37:35;15.80;;;7.00;;